Time;durP1;ratioP1;P1;durP2;ratioP2;P2;SDS_P1;SDS_P2;PMS_P1;PMS_P2;Temp;Humidity;BMP_temperature;BMP_pressure;BME280_temperature;BME280_humidity;BME280_pressure;Samples;Min_cycle;Max_cycle;Signal;HPM_P1;HPM_P2
2022/07/09 00:00:33;;;;;;;11.43;6.70;;;18.90;99.90;;;;;;5052884;28;20178;-73
2022/07/09 00:02:59;;;;;;;6.47;6.00;;;18.90;99.90;;;;;;5052761;28;20182;-74
2022/07/09 00:05:25;;;;;;;6.90;6.13;;;18.90;99.90;;;;;;5052463;28;20184;-74
2022/07/09 00:07:50;;;;;;;7.13;6.63;;;18.90;99.90;;;;;;5051540;28;20621;-74
2022/07/09 00:10:16;;;;;;;6.50;6.10;;;18.80;99.90;;;;;;5051651;28;20265;-74
2022/07/09 00:12:42;;;;;;;6.17;5.77;;;18.80;99.90;;;;;;5053029;28;20598;-73
2022/07/09 00:15:08;;;;;;;7.00;6.43;;;18.80;99.90;;;;;;5051628;28;20186;-74
2022/07/09 00:17:34;;;;;;;7.80;7.20;;;18.70;99.90;;;;;;5034769;28;20197;-74
2022/07/09 00:20:02;;;;;;;7.93;7.30;;;18.70;99.90;;;;;;5052178;28;20444;-74
2022/07/09 00:22:27;;;;;;;7.57;7.03;;;18.70;99.90;;;;;;5052326;28;20197;-74
2022/07/09 00:24:53;;;;;;;8.27;7.50;;;18.70;99.90;;;;;;5034477;28;20496;-73
2022/07/09 00:27:19;;;;;;;7.70;7.20;;;18.70;99.90;;;;;;5033905;28;20181;-74
2022/07/09 00:29:44;;;;;;;6.83;6.40;;;18.60;99.90;;;;;;5052472;28;20661;-72
2022/07/09 00:32:10;;;;;;;8.00;6.30;;;18.70;99.90;;;;;;5033775;28;20187;-74
2022/07/09 00:34:36;;;;;;;6.90;6.20;;;18.60;99.90;;;;;;5033622;28;20256;-73
2022/07/09 00:37:02;;;;;;;6.60;6.00;;;18.60;99.90;;;;;;5033780;28;20289;-73
2022/07/09 00:39:27;;;;;;;5.93;5.53;;;18.60;99.90;;;;;;5051440;28;20223;-73
2022/07/09 00:42:06;;;;;;;6.60;6.10;;;18.60;99.90;;;;;;5052403;28;20178;-74
2022/07/09 00:44:32;;;;;;;6.93;6.23;;;18.60;99.90;;;;;;5051979;28;20209;-73
2022/07/09 00:46:58;;;;;;;6.70;6.30;;;18.60;99.90;;;;;;5034475;28;20419;-73
2022/07/09 00:49:29;;;;;;;6.97;6.27;;;18.50;99.90;;;;;;5033604;28;20928;-73
2022/07/09 00:51:56;;;;;;;7.00;6.30;;;18.50;99.90;;;;;;5034302;28;20427;-73
2022/07/09 00:54:23;;;;;;;6.50;6.00;;;18.50;99.90;;;;;;5051360;28;20411;-74
2022/07/09 00:56:51;;;;;;;6.60;6.10;;;18.50;99.90;;;;;;5052345;28;20424;-73
2022/07/09 00:59:18;;;;;;;5.97;5.57;;;18.50;99.90;;;;;;5051364;28;20412;-74
2022/07/09 01:01:43;;;;;;;7.30;6.70;;;18.40;99.90;;;;;;5034280;28;20412;-74
2022/07/09 01:04:09;;;;;;;7.73;7.03;;;18.40;99.90;;;;;;5050336;28;20460;-76
2022/07/09 01:06:35;;;;;;;7.43;6.83;;;18.40;99.90;;;;;;5052120;28;20182;-73
2022/07/09 01:09:02;;;;;;;8.47;7.67;;;18.40;99.90;;;;;;5051922;28;20415;-74
2022/07/09 01:11:28;;;;;;;7.80;7.00;;;18.30;99.90;;;;;;5051277;28;20174;-74
2022/07/09 01:13:54;;;;;;;7.83;7.23;;;18.30;99.90;;;;;;5051948;28;20980;-74
2022/07/09 01:16:20;;;;;;;8.27;7.67;;;18.30;99.90;;;;;;5033224;28;20411;-74
2022/07/09 01:18:47;;;;;;;6.80;6.30;;;18.30;99.90;;;;;;5051586;28;20423;-74
2022/07/09 01:21:16;;;;;;;7.77;7.10;;;18.30;99.90;;;;;;5055366;28;20225;-74
2022/07/09 01:23:41;;;;;;;7.93;7.23;;;18.30;99.90;;;;;;5038208;28;20456;-73
2022/07/09 01:26:08;;;;;;;8.30;7.50;;;18.20;99.90;;;;;;5037819;28;20412;-76
2022/07/09 01:28:34;;;;;;;7.90;7.40;;;18.20;99.90;;;;;;5055372;28;20180;-73
2022/07/09 01:30:59;;;;;;;8.20;7.53;;;18.20;99.90;;;;;;5037968;28;20412;-73
2022/07/09 01:33:26;;;;;;;8.30;7.50;;;18.20;99.90;;;;;;5053590;28;20193;-74
2022/07/09 01:35:51;;;;;;;7.53;6.93;;;18.20;99.90;;;;;;5053602;28;20652;-74
2022/07/09 01:38:17;;;;;;;7.90;7.20;;;18.10;99.90;;;;;;5017199;28;20417;-74
2022/07/09 01:40:43;;;;;;;7.43;6.93;;;18.10;99.90;;;;;;5018189;28;20189;-73
2022/07/09 01:43:08;;;;;;;8.20;7.40;;;18.10;99.90;;;;;;5034934;28;20541;-77
2022/07/09 01:45:34;;;;;;;8.07;7.57;;;18.10;99.90;;;;;;5035273;28;20183;-74
2022/07/09 01:48:00;;;;;;;7.37;6.90;;;18.10;99.90;;;;;;5035849;28;20175;-73
2022/07/09 01:50:26;;;;;;;7.53;6.93;;;18.10;99.90;;;;;;5035004;28;20630;-74
2022/07/09 01:52:51;;;;;;;6.97;6.47;;;18.10;99.90;;;;;;5035231;28;20269;-73
2022/07/09 01:55:17;;;;;;;7.90;7.30;;;18.00;99.90;;;;;;5016884;28;20174;-74
2022/07/09 01:57:43;;;;;;;6.73;6.30;;;18.00;99.90;;;;;;5035174;28;20189;-73
2022/07/09 02:00:09;;;;;;;7.23;6.73;;;18.00;99.90;;;;;;5035134;28;20174;-76
2022/07/09 02:02:35;;;;;;;7.70;7.10;;;18.00;99.90;;;;;;5036294;28;20198;-73
2022/07/09 02:05:00;;;;;;;6.90;6.40;;;18.00;99.90;;;;;;5055437;28;20545;-73
2022/07/09 02:07:26;;;;;;;7.47;6.80;;;18.00;99.90;;;;;;5054338;28;20250;-74
2022/07/09 02:09:52;;;;;;;7.57;7.10;;;18.00;99.90;;;;;;5055255;28;20184;-73
2022/07/09 02:12:18;;;;;;;7.37;6.50;;;17.90;99.90;;;;;;5054069;28;20205;-74
2022/07/09 02:14:44;;;;;;;10.50;8.27;;;17.90;99.90;;;;;;5055367;28;20211;-73
2022/07/09 02:17:10;;;;;;;6.87;6.37;;;17.90;99.90;;;;;;5055057;28;20458;-76
2022/07/09 02:19:35;;;;;;;7.73;7.13;;;17.90;99.90;;;;;;5036395;28;20412;-73
2022/07/09 02:22:01;;;;;;;6.80;6.30;;;17.90;99.90;;;;;;5071969;28;20447;-73
2022/07/09 02:24:28;;;;;;;7.57;7.00;;;17.90;99.90;;;;;;5072861;28;20201;-73
2022/07/09 02:26:54;;;;;;;7.33;6.83;;;17.80;99.90;;;;;;5074601;28;20629;-73
2022/07/09 02:29:20;;;;;;;6.80;6.30;;;17.80;99.90;;;;;;5073945;28;20428;-73
2022/07/09 02:31:46;;;;;;;7.00;6.40;;;17.80;99.90;;;;;;5073454;28;20427;-72
2022/07/09 02:34:11;;;;;;;6.70;6.30;;;17.70;99.90;;;;;;5073423;28;20263;-76
2022/07/09 02:36:37;;;;;;;8.33;6.97;;;17.70;99.90;;;;;;5074242;28;20577;-73
2022/07/09 02:39:03;;;;;;;7.30;6.80;;;17.70;99.90;;;;;;5056583;28;20177;-73
2022/07/09 02:41:29;;;;;;;8.40;7.80;;;17.70;99.90;;;;;;5072636;28;20174;-74
2022/07/09 02:43:54;;;;;;;8.90;8.17;;;17.70;99.90;;;;;;5073111;28;20253;-73
2022/07/09 02:46:20;;;;;;;8.00;7.40;;;17.70;99.90;;;;;;5073541;28;20177;-73
2022/07/09 02:48:46;;;;;;;7.77;7.17;;;17.70;99.90;;;;;;5074221;28;20173;-73
2022/07/09 02:51:11;;;;;;;8.83;8.00;;;17.70;99.90;;;;;;5072929;28;20211;-76
2022/07/09 02:53:37;;;;;;;8.23;7.70;;;17.80;99.90;;;;;;5073671;28;20546;-73
2022/07/09 02:56:03;;;;;;;8.80;8.20;;;17.80;99.90;;;;;;5074224;28;20206;-73
2022/07/09 02:58:30;;;;;;;9.63;8.80;;;17.80;99.90;;;;;;5073578;28;20177;-73
2022/07/09 03:00:56;;;;;;;8.90;8.20;;;17.90;99.90;;;;;;5072989;28;20483;-73
2022/07/09 03:03:23;;;;;;;8.10;7.40;;;17.90;99.90;;;;;;5072289;28;20545;-74
2022/07/09 03:05:49;;;;;;;8.50;7.90;;;17.90;99.90;;;;;;5072866;28;20189;-73
2022/07/09 03:08:15;;;;;;;8.33;7.77;;;17.90;99.90;;;;;;5073630;28;20414;-76
2022/07/09 03:10:40;;;;;;;8.83;8.03;;;17.90;99.90;;;;;;5072588;28;20887;-73
2022/07/09 03:13:06;;;;;;;9.90;7.80;;;18.00;99.90;;;;;;5074023;28;20176;-73
2022/07/09 03:15:32;;;;;;;8.60;8.00;;;18.00;99.90;;;;;;5071911;28;20200;-73
2022/07/09 03:17:57;;;;;;;9.30;8.60;;;18.00;99.90;;;;;;5073855;28;20633;-73
2022/07/09 03:20:23;;;;;;;8.40;7.73;;;18.00;99.90;;;;;;5067592;28;20656;-73
2022/07/09 03:22:49;;;;;;;8.40;7.80;;;18.00;99.90;;;;;;5053633;28;20182;-73
2022/07/09 03:25:15;;;;;;;8.70;7.97;;;18.10;99.90;;;;;;5053374;28;20771;-76
2022/07/09 03:27:40;;;;;;;8.67;8.07;;;18.10;99.90;;;;;;5018072;28;20279;-74
2022/07/09 03:30:06;;;;;;;8.73;8.03;;;18.10;99.90;;;;;;5053560;28;20177;-73
2022/07/09 03:32:32;;;;;;;8.30;7.80;;;18.10;99.90;;;;;;5052119;28;20540;-73
2022/07/09 03:34:58;;;;;;;9.00;8.30;;;18.10;99.90;;;;;;5052485;28;20435;-73
2022/07/09 03:37:24;;;;;;;8.83;8.23;;;18.10;99.90;;;;;;5052645;28;20177;-73
2022/07/09 03:39:49;;;;;;;9.00;8.30;;;18.10;99.90;;;;;;5035764;28;20173;-74
2022/07/09 03:42:15;;;;;;;9.47;8.67;;;18.00;99.90;;;;;;5034724;28;20226;-77
2022/07/09 03:44:41;;;;;;;8.37;7.77;;;18.00;99.90;;;;;;5052597;28;20228;-74
2022/07/09 03:47:07;;;;;;;8.00;7.40;;;18.10;99.90;;;;;;5053263;28;20657;-74
2022/07/09 03:49:34;;;;;;;8.73;8.13;;;18.10;99.90;;;;;;5034478;28;20591;-74
2022/07/09 03:52:00;;;;;;;8.80;8.10;;;18.20;99.90;;;;;;5052873;28;20910;-73
2022/07/09 03:54:25;;;;;;;9.87;9.00;;;18.20;99.90;;;;;;5052637;28;20408;-74
2022/07/09 03:56:51;;;;;;;9.67;8.70;;;18.20;99.90;;;;;;5053391;28;20213;-73
2022/07/09 03:59:17;;;;;;;10.17;9.37;;;18.20;99.90;;;;;;5034554;28;20169;-77
2022/07/09 04:01:44;;;;;;;10.10;9.20;;;18.30;99.90;;;;;;5053003;28;20416;-73
2022/07/09 04:04:09;;;;;;;9.10;8.50;;;18.30;99.90;;;;;;5052046;28;20541;-74
2022/07/09 04:06:35;;;;;;;8.83;8.13;;;18.30;99.90;;;;;;5052245;28;20404;-74
2022/07/09 04:09:04;;;;;;;9.57;8.67;;;18.30;99.90;;;;;;5052633;28;20220;-74
2022/07/09 04:11:31;;;;;;;9.60;8.60;;;18.40;99.90;;;;;;5052154;28;20178;-74
2022/07/09 04:14:01;;;;;;;8.87;8.17;;;18.40;99.90;;;;;;5052713;28;20507;-74
2022/07/09 04:16:28;;;;;;;9.20;8.40;;;18.30;99.90;;;;;;5052003;28;20511;-74
2022/07/09 04:18:54;;;;;;;9.20;8.50;;;18.30;99.90;;;;;;5052577;28;20446;-73
2022/07/09 04:21:22;;;;;;;9.63;8.67;;;18.20;99.90;;;;;;5057793;28;20502;-77
2022/07/09 04:23:51;;;;;;;8.90;8.20;;;18.20;99.90;;;;;;5072519;28;20451;-74
2022/07/09 04:26:20;;;;;;;9.43;8.70;;;18.30;99.90;;;;;;5072568;28;20506;-75
2022/07/09 04:28:46;;;;;;;9.07;8.37;;;18.30;99.90;;;;;;5072513;28;20506;-73
2022/07/09 04:31:13;;;;;;;9.23;8.63;;;18.30;99.90;;;;;;5071467;28;20498;-73
2022/07/09 04:33:38;;;;;;;9.10;8.40;;;18.40;99.90;;;;;;5070692;28;20196;-74
2022/07/09 04:36:04;;;;;;;10.63;9.83;;;18.40;99.90;;;;;;5072405;28;20419;-74
2022/07/09 04:38:30;;;;;;;10.13;9.30;;;18.50;99.90;;;;;;5071133;28;20200;-74
2022/07/09 04:40:56;;;;;;;10.40;9.60;;;18.50;99.90;;;;;;5072520;28;20408;-74
2022/07/09 04:43:22;;;;;;;10.77;9.97;;;18.50;99.90;;;;;;5071457;28;20418;-74
2022/07/09 04:45:48;;;;;;;10.10;9.10;;;18.50;99.90;;;;;;5072246;28;20177;-73
2022/07/09 04:48:13;;;;;;;10.07;9.30;;;18.60;99.90;;;;;;5036816;28;20589;-74
2022/07/09 04:50:39;;;;;;;10.17;9.33;;;18.70;99.90;;;;;;5070256;28;20187;-73
2022/07/09 04:53:05;;;;;;;10.63;9.87;;;18.70;99.90;;;;;;5071831;28;20181;-73
2022/07/09 04:55:31;;;;;;;10.60;9.80;;;18.80;99.90;;;;;;5071153;28;20181;-73
2022/07/09 04:57:57;;;;;;;10.60;9.60;;;18.80;99.90;;;;;;5072153;28;20406;-73
2022/07/09 05:00:23;;;;;;;11.17;10.27;;;18.90;99.90;;;;;;5072021;28;20185;-76
2022/07/09 05:02:48;;;;;;;10.97;9.93;;;18.90;99.90;;;;;;5072229;28;20204;-74
2022/07/09 05:05:14;;;;;;;11.03;10.00;;;18.90;99.90;;;;;;5072040;28;20295;-74
2022/07/09 05:07:43;;;;;;;10.87;9.97;;;19.00;99.90;;;;;;5068466;28;20185;-73
2022/07/09 05:10:09;;;;;;;11.80;10.67;;;19.00;99.90;;;;;;5071920;28;20411;-74
2022/07/09 05:12:35;;;;;;;11.03;10.23;;;19.00;99.90;;;;;;5070565;28;20914;-73
2022/07/09 05:15:01;;;;;;;10.53;9.73;;;19.10;99.90;;;;;;5070914;28;20429;-73
2022/07/09 05:17:27;;;;;;;10.47;9.67;;;19.10;99.90;;;;;;5070142;28;20950;-74
2022/07/09 05:19:53;;;;;;;11.37;10.33;;;19.10;99.90;;;;;;5070163;28;20660;-73
2022/07/09 05:22:18;;;;;;;12.20;11.07;;;19.10;99.90;;;;;;5051868;28;20201;-73
2022/07/09 05:24:44;;;;;;;10.87;9.97;;;19.20;99.90;;;;;;5050780;28;20992;-73
2022/07/09 05:27:10;;;;;;;10.70;9.73;;;19.20;99.90;;;;;;5032307;28;20231;-73
2022/07/09 05:29:36;;;;;;;12.27;11.27;;;19.20;99.90;;;;;;5051143;28;20291;-73
2022/07/09 05:32:03;;;;;;;11.03;10.13;;;19.20;99.90;;;;;;5051624;28;20165;-73
2022/07/09 05:34:29;;;;;;;11.60;10.70;;;19.30;99.90;;;;;;5050949;28;20411;-74
2022/07/09 05:36:55;;;;;;;11.93;10.93;;;19.30;99.90;;;;;;5051799;28;20884;-72
2022/07/09 05:39:21;;;;;;;12.30;10.97;;;19.30;99.90;;;;;;5051658;28;20170;-73
2022/07/09 05:41:48;;;;;;;11.10;10.20;;;19.40;99.90;;;;;;5051293;28;20432;-73
2022/07/09 05:44:14;;;;;;;11.03;10.13;;;19.40;99.90;;;;;;5033587;28;20792;-74
2022/07/09 05:46:41;;;;;;;11.30;10.30;;;19.50;99.90;;;;;;5051119;28;20415;-73
2022/07/09 05:49:07;;;;;;;11.53;10.43;;;19.50;99.90;;;;;;5051304;28;20443;-74
2022/07/09 05:51:33;;;;;;;9.93;9.10;;;19.50;99.90;;;;;;5050871;28;20416;-74
2022/07/09 05:53:59;;;;;;;10.03;9.03;;;19.60;99.90;;;;;;5051611;28;20519;-74
2022/07/09 05:56:24;;;;;;;9.40;8.60;;;19.70;99.90;;;;;;5050295;28;20440;-75
2022/07/09 05:58:50;;;;;;;9.90;9.00;;;19.80;99.90;;;;;;5033564;28;20182;-74
2022/07/09 06:01:17;;;;;;;9.93;9.13;;;19.80;99.90;;;;;;5051577;28;20178;-74
2022/07/09 06:03:42;;;;;;;9.10;8.37;;;19.90;99.90;;;;;;5050743;28;20209;-74
2022/07/09 06:06:09;;;;;;;9.17;8.43;;;19.90;99.90;;;;;;5053633;28;20751;-74
2022/07/09 06:08:35;;;;;;;9.80;8.47;;;20.00;99.90;;;;;;5054415;28;20423;-74
2022/07/09 06:11:01;;;;;;;8.73;8.03;;;20.00;99.90;;;;;;5037217;28;20419;-74
2022/07/09 06:13:27;;;;;;;8.20;7.50;;;20.10;99.90;;;;;;5036781;28;20465;-76
2022/07/09 06:15:53;;;;;;;8.60;8.00;;;20.10;99.90;;;;;;5055072;28;20407;-74
2022/07/09 06:18:19;;;;;;;8.13;7.53;;;20.20;99.90;;;;;;5054931;28;20328;-74
2022/07/09 06:20:45;;;;;;;13.90;7.37;;;20.20;99.90;;;;;;5054074;28;21084;-74
2022/07/09 06:23:11;;;;;;;8.30;7.60;;;20.20;99.90;;;;;;5054686;28;20177;-74
2022/07/09 06:25:38;;;;;;;10.93;7.57;;;20.30;99.90;;;;;;5034298;28;20450;-74
2022/07/09 06:28:07;;;;;;;7.00;6.40;;;20.30;99.90;;;;;;5036995;28;20408;-74
2022/07/09 06:30:34;;;;;;;7.90;7.30;;;20.30;99.90;;;;;;5020935;28;20420;-74
2022/07/09 06:33:00;;;;;;;7.40;6.70;;;20.40;99.90;;;;;;5037196;28;20481;-74
2022/07/09 06:35:26;;;;;;;7.50;6.80;;;20.40;99.90;;;;;;5053980;28;20189;-77
2022/07/09 06:37:52;;;;;;;7.60;7.00;;;20.50;99.90;;;;;;5054373;28;20408;-74
2022/07/09 06:40:18;;;;;;;8.00;7.40;;;20.50;99.90;;;;;;5054586;28;20173;-74
2022/07/09 06:42:43;;;;;;;7.23;6.63;;;20.60;99.90;;;;;;5053719;28;20207;-74
2022/07/09 06:45:09;;;;;;;7.57;6.80;;;20.60;99.90;;;;;;5054284;28;20209;-74
2022/07/09 06:47:36;;;;;;;6.60;6.00;;;20.60;99.90;;;;;;5035665;28;20634;-75
2022/07/09 06:50:02;;;;;;;6.40;6.00;;;20.70;99.90;;;;;;5054437;28;20427;-74
2022/07/09 06:52:28;;;;;;;5.50;5.00;;;20.80;99.90;;;;;;5053788;28;20438;-77
2022/07/09 06:54:53;;;;;;;5.77;5.27;;;20.90;99.90;;;;;;5053156;28;20919;-74
2022/07/09 06:57:19;;;;;;;5.40;4.50;;;20.90;99.90;;;;;;5054556;28;20178;-74
2022/07/09 06:59:46;;;;;;;5.00;4.60;;;21.00;99.90;;;;;;5053568;28;20178;-74
2022/07/09 07:02:12;;;;;;;5.30;4.33;;;21.10;99.90;;;;;;5054236;28;20633;-74
2022/07/09 07:04:38;;;;;;;4.37;4.07;;;21.10;99.90;;;;;;5053045;28;20889;-74
2022/07/09 07:07:04;;;;;;;4.33;3.97;;;21.20;99.90;;;;;;5053931;28;20448;-73
2022/07/09 07:09:30;;;;;;;4.50;4.20;;;21.20;99.90;;;;;;5053425;28;20581;-77
2022/07/09 07:11:57;;;;;;;4.00;3.50;;;21.30;99.90;;;;;;5054206;28;20873;-74
2022/07/09 07:14:22;;;;;;;4.13;3.80;;;21.30;99.90;;;;;;5053955;28;20409;-74
2022/07/09 07:16:48;;;;;;;3.70;3.37;;;21.40;99.90;;;;;;5051874;28;20561;-74
2022/07/09 07:19:14;;;;;;;5.53;3.17;;;21.40;99.90;;;;;;5053688;28;20181;-74
2022/07/09 07:21:40;;;;;;;3.30;3.20;;;21.50;99.90;;;;;;5053139;28;20226;-75
2022/07/09 07:24:07;;;;;;;3.00;2.80;;;21.50;99.90;;;;;;5052188;28;20251;-74
2022/07/09 07:26:34;;;;;;;3.27;3.07;;;21.50;99.90;;;;;;5052873;28;20186;-75
2022/07/09 07:28:59;;;;;;;3.27;3.07;;;21.60;99.90;;;;;;5053734;28;20773;-74
2022/07/09 07:31:25;;;;;;;3.40;3.20;;;21.60;99.90;;;;;;5053306;28;20910;-74
2022/07/09 07:33:52;;;;;;;3.73;3.30;;;21.70;99.90;;;;;;5052812;28;20495;-74
2022/07/09 07:36:18;;;;;;;3.60;3.40;;;21.70;99.90;;;;;;5053698;28;20182;-74
2022/07/09 07:38:45;;;;;;;3.57;3.37;;;21.80;99.90;;;;;;5052790;28;20448;-74
2022/07/09 07:41:12;;;;;;;3.47;3.27;;;21.90;99.90;;;;;;5053560;28;20409;-74
2022/07/09 07:43:38;;;;;;;3.20;2.90;;;21.90;99.90;;;;;;5052579;28;20463;-75
2022/07/09 07:46:04;;;;;;;3.40;3.17;;;22.00;99.90;;;;;;5053390;28;20477;-74
2022/07/09 07:48:30;;;;;;;3.20;3.00;;;22.00;99.60;;;;;;5051888;28;20888;-77
2022/07/09 07:50:57;;;;;;;3.57;3.27;;;22.10;99.40;;;;;;5051726;28;20240;-74
2022/07/09 07:53:23;;;;;;;2.97;2.83;;;22.20;99.00;;;;;;5053025;28;20492;-74
2022/07/09 07:55:49;;;;;;;2.70;2.60;;;22.20;99.10;;;;;;5052540;28;20933;-74
2022/07/09 07:58:15;;;;;;;2.70;2.60;;;22.40;98.90;;;;;;5053047;28;20484;-74
2022/07/09 08:00:41;;;;;;;2.70;2.50;;;22.50;98.80;;;;;;5052381;28;20495;-75
2022/07/09 08:03:07;;;;;;;4.10;2.50;;;22.60;98.30;;;;;;5053235;28;20185;-74
2022/07/09 08:05:33;;;;;;;2.57;2.47;;;22.70;97.20;;;;;;5052330;28;20248;-77
2022/07/09 08:07:58;;;;;;;2.23;2.13;;;22.80;96.60;;;;;;5052758;28;20264;-75
2022/07/09 08:10:25;;;;;;;2.30;2.20;;;23.00;97.10;;;;;;5052982;28;20412;-74
2022/07/09 08:12:51;;;;;;;2.30;2.20;;;23.20;96.30;;;;;;5034432;28;20174;-74
2022/07/09 08:15:17;;;;;;;2.30;2.20;;;23.30;97.10;;;;;;5052699;28;20470;-74
2022/07/09 08:17:44;;;;;;;2.73;2.63;;;23.40;95.40;;;;;;5032951;28;20856;-75
2022/07/09 08:20:10;;;;;;;3.40;3.20;;;23.50;96.30;;;;;;5052553;28;20699;-74
2022/07/09 08:22:36;;;;;;;3.53;3.30;;;23.60;96.20;;;;;;5051508;28;20416;-75
2022/07/09 08:25:03;;;;;;;3.67;3.37;;;23.60;96.20;;;;;;5052508;28;20471;-74
2022/07/09 08:27:29;;;;;;;3.33;3.13;;;23.60;96.10;;;;;;5052687;28;20458;-75
2022/07/09 08:29:54;;;;;;;3.67;3.47;;;23.60;95.70;;;;;;5051572;28;20400;-75
2022/07/09 08:32:20;;;;;;;3.83;3.13;;;23.80;95.70;;;;;;5052258;28;20189;-74
2022/07/09 08:34:46;;;;;;;3.30;3.10;;;23.90;94.90;;;;;;5051645;28;20206;-75
2022/07/09 08:37:12;;;;;;;3.07;2.87;;;24.00;95.20;;;;;;5052484;28;20812;-74
2022/07/09 08:39:37;;;;;;;2.70;2.60;;;24.10;94.40;;;;;;5032580;28;20178;-74
2022/07/09 08:42:08;;;;;;;2.73;2.63;;;24.10;93.70;;;;;;5052229;28;20522;-74
2022/07/09 08:44:37;;;;;;;2.90;2.80;;;24.20;93.90;;;;;;5052045;28;20267;-76
2022/07/09 08:47:03;;;;;;;3.17;2.97;;;24.10;93.50;;;;;;5052401;28;20470;-74
2022/07/09 08:49:31;;;;;;;3.60;3.50;;;24.20;94.30;;;;;;5052172;28;20405;-74
2022/07/09 08:51:57;;;;;;;4.63;4.33;;;24.30;93.10;;;;;;5033650;28;20420;-74
2022/07/09 08:54:23;;;;;;;3.77;3.57;;;24.20;92.00;;;;;;5051949;28;20438;-74
2022/07/09 08:56:52;;;;;;;3.17;3.07;;;24.30;93.10;;;;;;5051362;28;20554;-74
2022/07/09 08:59:18;;;;;;;3.23;3.07;;;24.40;91.80;;;;;;5033255;28;20455;-74
2022/07/09 09:01:44;;;;;;;2.27;2.17;;;24.50;92.50;;;;;;5050942;28;20468;-74
2022/07/09 09:04:10;;;;;;;3.07;2.50;;;24.70;92.00;;;;;;5052016;28;20205;-74
2022/07/09 09:06:42;;;;;;;3.40;3.20;;;24.80;91.70;;;;;;5051839;28;20450;-77
2022/07/09 09:09:10;;;;;;;3.50;3.30;;;24.80;91.80;;;;;;5048953;28;20184;-74
2022/07/09 09:11:36;;;;;;;3.63;3.37;;;24.90;91.60;;;;;;5032244;28;20431;-75
2022/07/09 09:14:03;;;;;;;2.70;2.50;;;24.90;91.00;;;;;;5051616;28;20908;-74
2022/07/09 09:16:29;;;;;;;3.87;3.57;;;25.00;90.90;;;;;;5052013;28;20392;-73
2022/07/09 09:18:56;;;;;;;2.87;2.70;;;25.10;92.30;;;;;;5051146;28;20400;-74
2022/07/09 09:21:23;;;;;;;3.10;2.90;;;25.20;91.00;;;;;;5051877;28;20459;-74
2022/07/09 09:23:52;;;;;;;2.90;2.80;;;25.30;90.60;;;;;;5051159;28;20852;-74
2022/07/09 09:26:19;;;;;;;2.80;2.70;;;25.50;89.40;;;;;;5051569;28;20517;-74
2022/07/09 09:29:04;;;;;;;2.87;2.67;;;25.50;89.70;;;;;;5051054;28;20404;-74
2022/07/09 09:31:31;;;;;;;3.60;3.40;;;25.50;89.50;;;;;;5051866;28;20400;-74
2022/07/09 09:34:10;;;;;;;3.43;3.13;;;25.40;89.00;;;;;;5051016;28;20444;-74
2022/07/09 09:36:38;;;;;;;3.83;3.60;;;25.40;89.10;;;;;;5051653;28;20396;-76
2022/07/09 09:39:13;;;;;;;4.50;4.20;;;25.50;89.30;;;;;;5032104;28;21031;-74
2022/07/09 09:41:40;;;;;;;5.03;4.27;;;25.40;88.20;;;;;;5050483;28;20427;-75
2022/07/09 09:44:09;;;;;;;4.30;4.00;;;25.40;89.10;;;;;;5055222;28;20939;-74
2022/07/09 09:46:39;;;;;;;4.90;4.50;;;25.30;87.80;;;;;;5055607;28;20416;-74
2022/07/09 09:49:07;;;;;;;4.57;3.83;;;25.10;88.80;;;;;;5055110;28;20523;-74
2022/07/09 09:51:41;;;;;;;4.37;3.97;;;25.00;89.30;;;;;;5036034;28;20427;-74
2022/07/09 09:54:09;;;;;;;6.10;4.07;;;24.90;87.90;;;;;;5054675;28;20442;-74
2022/07/09 09:56:35;;;;;;;4.37;4.07;;;24.80;88.90;;;;;;5037865;28;20516;-73
2022/07/09 09:59:01;;;;;;;3.90;3.60;;;24.70;88.90;;;;;;5054632;28;20416;-74
2022/07/09 10:01:29;;;;;;;4.40;4.10;;;24.70;88.50;;;;;;5055429;28;20504;-74
2022/07/09 10:03:55;;;;;;;3.73;3.53;;;24.60;88.70;;;;;;5054303;28;20542;-74
2022/07/09 10:06:22;;;;;;;3.30;3.10;;;24.50;88.50;;;;;;5055247;28;20756;-74
2022/07/09 10:08:48;;;;;;;3.47;3.27;;;24.50;89.20;;;;;;5053969;28;20861;-74
2022/07/09 10:11:13;;;;;;;3.40;3.20;;;24.50;89.50;;;;;;5054505;28;20466;-73
2022/07/09 10:13:56;;;;;;;3.30;3.10;;;24.40;89.70;;;;;;5054789;28;20415;-76
2022/07/09 10:16:36;;;;;;;3.97;3.67;;;24.30;88.70;;;;;;5055074;28;20184;-74
2022/07/09 10:19:02;;;;;;;3.50;3.30;;;24.30;90.00;;;;;;5054257;28;20404;-75
2022/07/09 10:21:40;;;;;;;4.37;3.50;;;24.30;90.50;;;;;;5054970;28;20943;-75
2022/07/09 10:24:08;;;;;;;3.43;3.13;;;24.30;90.20;;;;;;5054401;28;20443;-75
2022/07/09 10:26:42;;;;;;;4.00;3.70;;;24.30;90.20;;;;;;5054793;28;20422;-75
2022/07/09 10:29:26;;;;;;;3.13;2.93;;;24.30;90.40;;;;;;5054739;28;20814;-74
2022/07/09 10:31:53;;;;;;;3.70;3.40;;;24.30;90.60;;;;;;5053750;28;20435;-75
2022/07/09 10:34:45;;;;;;;3.67;3.47;;;24.30;91.70;;;;;;5054815;28;20411;-74
2022/07/09 10:37:11;;;;;;;3.30;3.00;;;24.40;91.30;;;;;;5054448;28;20462;-73
2022/07/09 10:39:37;;;;;;;3.27;3.00;;;24.30;90.90;;;;;;5052835;28;20428;-74
2022/07/09 10:42:18;;;;;;;3.73;3.43;;;24.40;91.30;;;;;;5053514;28;20181;-75
2022/07/09 10:44:45;;;;;;;3.90;3.60;;;24.50;91.30;;;;;;5053671;28;20540;-75
2022/07/09 10:47:12;;;;;;;3.90;3.60;;;24.50;91.20;;;;;;5054821;28;20445;-74
2022/07/09 10:49:38;;;;;;;3.70;3.40;;;24.50;91.60;;;;;;5054326;28;20416;-74
2022/07/09 10:52:05;;;;;;;4.80;4.60;;;24.50;92.40;;;;;;5053485;28;20416;-75
2022/07/09 10:54:32;;;;;;;4.30;3.97;;;24.60;91.40;;;;;;5054321;28;20408;-74
2022/07/09 10:56:58;;;;;;;4.10;3.90;;;24.60;91.00;;;;;;5053535;28;20451;-74
2022/07/09 10:59:25;;;;;;;4.13;3.83;;;24.60;90.00;;;;;;5054201;28;20451;-75
2022/07/09 11:01:51;;;;;;;4.43;4.10;;;24.60;90.20;;;;;;5053639;28;20453;-75
2022/07/09 11:04:28;;;;;;;4.60;4.20;;;24.60;90.30;;;;;;5054337;28;20447;-74
2022/07/09 11:06:54;;;;;;;3.67;3.47;;;24.60;90.50;;;;;;5053512;28;20408;-74
2022/07/09 11:09:20;;;;;;;6.90;4.77;;;24.70;91.10;;;;;;5037764;28;20420;-74
2022/07/09 11:11:49;;;;;;;4.20;3.83;;;24.70;91.10;;;;;;5033423;28;20758;-75
2022/07/09 11:14:15;;;;;;;4.43;4.13;;;24.80;90.90;;;;;;5034208;28;20182;-74
2022/07/09 11:16:41;;;;;;;7.53;4.27;;;24.80;90.30;;;;;;5034001;28;20476;-74
2022/07/09 11:19:17;;;;;;;4.10;3.80;;;24.80;90.70;;;;;;5015593;28;20428;-74
2022/07/09 11:21:43;;;;;;;4.23;3.93;;;24.90;91.30;;;;;;5033421;28;20226;-76
2022/07/09 11:24:17;;;;;;;4.33;3.70;;;24.90;90.60;;;;;;5033582;28;20956;-74
2022/07/09 11:26:42;;;;;;;4.03;3.73;;;24.80;90.10;;;;;;5016216;28;20174;-77
2022/07/09 11:29:09;;;;;;;3.77;3.53;;;24.80;90.30;;;;;;5033362;28;20421;-74
2022/07/09 11:31:36;;;;;;;3.77;3.37;;;24.80;90.30;;;;;;5033498;28;20185;-74
2022/07/09 11:34:12;;;;;;;3.37;3.00;;;24.80;90.50;;;;;;5032932;28;20833;-74
2022/07/09 11:36:42;;;;;;;3.43;3.23;;;24.70;90.00;;;;;;5015783;28;20753;-74
2022/07/09 11:39:08;;;;;;;3.63;3.33;;;24.60;90.00;;;;;;5048660;28;20432;-74
2022/07/09 11:41:44;;;;;;;4.30;3.10;;;24.60;90.60;;;;;;5053624;28;20415;-74
2022/07/09 11:44:13;;;;;;;3.20;3.00;;;24.50;91.00;;;;;;5052687;28;20537;-74
2022/07/09 11:46:39;;;;;;;2.60;2.40;;;24.60;91.40;;;;;;5053402;28;20416;-74
2022/07/09 11:49:15;;;;;;;3.40;3.10;;;24.70;91.20;;;;;;5052409;28;21052;-74
2022/07/09 11:51:41;;;;;;;2.90;2.73;;;24.80;91.00;;;;;;5053563;28;20223;-74
2022/07/09 11:54:07;;;;;;;2.97;2.77;;;25.00;90.40;;;;;;5052484;28;20450;-74
2022/07/09 11:56:45;;;;;;;2.90;2.70;;;25.20;90.50;;;;;;5053077;28;20495;-74
2022/07/09 11:59:12;;;;;;;2.83;2.73;;;25.40;90.30;;;;;;5052732;28;20405;-74
2022/07/09 12:01:38;;;;;;;3.20;2.90;;;25.60;89.20;;;;;;5052481;28;20423;-74
2022/07/09 12:04:04;;;;;;;3.20;3.00;;;25.80;90.20;;;;;;5033018;28;20464;-74
2022/07/09 12:06:31;;;;;;;3.27;2.70;;;25.90;85.60;;;;;;5052882;28;20401;-74
2022/07/09 12:09:02;;;;;;;3.00;2.80;;;25.90;85.30;;;;;;5052177;28;20481;-74
2022/07/09 12:11:28;;;;;;;2.77;2.57;;;25.90;84.50;;;;;;5051836;28;20781;-74
2022/07/09 12:13:55;;;;;;;2.70;2.60;;;25.80;83.30;;;;;;5051896;28;20499;-74
2022/07/09 12:16:21;;;;;;;2.80;2.70;;;25.60;83.70;;;;;;5052541;28;20408;-74
2022/07/09 12:18:47;;;;;;;2.87;2.77;;;25.50;85.10;;;;;;5051924;28;20415;-77
2022/07/09 12:21:12;;;;;;;4.00;3.80;;;25.30;84.20;;;;;;5052524;28;20225;-74
2022/07/09 12:23:38;;;;;;;3.60;3.40;;;25.10;85.60;;;;;;5052512;28;20177;-74
2022/07/09 12:26:04;;;;;;;3.83;3.63;;;24.90;85.80;;;;;;5051860;28;20698;-74
2022/07/09 12:28:30;;;;;;;3.70;3.40;;;24.70;86.50;;;;;;5052824;28;20174;-74
2022/07/09 12:30:55;;;;;;;4.10;3.70;;;24.60;87.40;;;;;;5051745;28;20319;-74
2022/07/09 12:33:21;;;;;;;3.27;3.07;;;24.50;89.20;;;;;;5050981;28;20181;-74
2022/07/09 12:35:47;;;;;;;3.63;3.43;;;24.50;90.60;;;;;;5052008;28;20223;-77
2022/07/09 12:38:12;;;;;;;3.10;2.90;;;24.40;90.70;;;;;;5050585;28;20200;-74
2022/07/09 12:40:38;;;;;;;3.10;2.90;;;24.40;90.80;;;;;;5052473;28;20258;-74
2022/07/09 12:43:04;;;;;;;3.80;3.60;;;24.40;91.20;;;;;;5051601;28;20178;-74